sensor_id;sensor_type;location;lat;lon;timestamp;pressure;altitude;pressure_sealevel;temperature;humidity
18850;BME280;4989;48.772;9.154;2023-10-09T00:04:44;98612.66;;;18.17;69.96
18850;BME280;4989;48.772;9.154;2023-10-09T00:09:47;98616.97;;;17.28;73.30
18850;BME280;4989;48.772;9.154;2023-10-09T00:14:51;98601.94;;;17.11;77.51
18850;BME280;4989;48.772;9.154;2023-10-09T00:20:10;98601.53;;;17.62;74.31
18850;BME280;4989;48.772;9.154;2023-10-09T00:25:22;98621.09;;;17.64;73.46
18850;BME280;4989;48.772;9.154;2023-10-09T00:30:31;98616.91;;;17.10;74.60
18850;BME280;4989;48.772;9.154;2023-10-09T00:35:38;98611.53;;;16.40;76.83
18850;BME280;4989;48.772;9.154;2023-10-09T00:40:56;98601.84;;;16.70;77.56
18850;BME280;4989;48.772;9.154;2023-10-09T00:46:07;98602.47;;;17.68;76.03
18850;BME280;4989;48.772;9.154;2023-10-09T00:51:23;98592.75;;;17.45;72.45
18850;BME280;4989;48.772;9.154;2023-10-09T00:56:27;98581.53;;;16.46;76.96
18850;BME280;4989;48.772;9.154;2023-10-09T01:01:29;98581.00;;;16.38;85.44
18850;BME280;4989;48.772;9.154;2023-10-09T01:06:41;98579.44;;;17.34;77.44
18850;BME280;4989;48.772;9.154;2023-10-09T01:11:46;98576.66;;;16.72;77.69
18850;BME280;4989;48.772;9.154;2023-10-09T01:17:01;98575.69;;;17.50;81.40
18850;BME280;4989;48.772;9.154;2023-10-09T01:22:04;98571.72;;;17.60;75.16
18850;BME280;4989;48.772;9.154;2023-10-09T01:27:15;98570.03;;;16.82;74.23
18850;BME280;4989;48.772;9.154;2023-10-09T01:32:18;98562.88;;;16.63;79.28
18850;BME280;4989;48.772;9.154;2023-10-09T01:37:23;98561.13;;;17.31;82.14
18850;BME280;4989;48.772;9.154;2023-10-09T01:42:31;98568.94;;;17.02;73.89
18850;BME280;4989;48.772;9.154;2023-10-09T01:47:33;98563.91;;;16.34;77.43
18850;BME280;4989;48.772;9.154;2023-10-09T01:52:35;98556.66;;;16.40;78.30
18850;BME280;4989;48.772;9.154;2023-10-09T01:57:39;98543.31;;;17.05;85.76
18850;BME280;4989;48.772;9.154;2023-10-09T02:02:41;98538.84;;;17.38;73.75
18850;BME280;4989;48.772;9.154;2023-10-09T02:07:47;98535.19;;;16.92;80.56
18850;BME280;4989;48.772;9.154;2023-10-09T02:13:07;98530.06;;;16.81;76.67
18850;BME280;4989;48.772;9.154;2023-10-09T02:18:16;98529.09;;;16.75;89.31
18850;BME280;4989;48.772;9.154;2023-10-09T02:23:21;98522.16;;;17.82;78.88
18850;BME280;4989;48.772;9.154;2023-10-09T02:28:27;98526.13;;;18.46;77.15
18850;BME280;4989;48.772;9.154;2023-10-09T02:33:35;98519.56;;;18.25;69.29
18850;BME280;4989;48.772;9.154;2023-10-09T02:38:38;98519.38;;;17.73;75.29
18850;BME280;4989;48.772;9.154;2023-10-09T02:43:43;98524.28;;;18.06;81.79
18850;BME280;4989;48.772;9.154;2023-10-09T02:48:49;98524.28;;;18.24;76.93
18850;BME280;4989;48.772;9.154;2023-10-09T02:54:04;98525.22;;;18.21;80.46
18850;BME280;4989;48.772;9.154;2023-10-09T02:59:22;98523.31;;;17.54;72.34
18850;BME280;4989;48.772;9.154;2023-10-09T03:04:24;98521.28;;;16.64;76.85
18850;BME280;4989;48.772;9.154;2023-10-09T03:09:27;98511.22;;;17.42;82.66
18850;BME280;4989;48.772;9.154;2023-10-09T03:14:36;98498.63;;;18.18;75.18
18850;BME280;4989;48.772;9.154;2023-10-09T03:19:41;98495.72;;;18.31;79.39
18850;BME280;4989;48.772;9.154;2023-10-09T03:24:45;98487.59;;;18.37;70.84
18850;BME280;4989;48.772;9.154;2023-10-09T03:29:53;98490.13;;;18.68;82.08
18850;BME280;4989;48.772;9.154;2023-10-09T03:34:56;98483.56;;;19.08;72.60
18850;BME280;4989;48.772;9.154;2023-10-09T03:40:02;98476.13;;;19.23;73.92
18850;BME280;4989;48.772;9.154;2023-10-09T03:45:07;98487.28;;;19.29;77.50
18850;BME280;4989;48.772;9.154;2023-10-09T03:50:20;98495.38;;;19.56;74.79
18850;BME280;4989;48.772;9.154;2023-10-09T03:55:39;98490.22;;;19.49;72.89
18850;BME280;4989;48.772;9.154;2023-10-09T04:00:41;98483.16;;;19.48;70.32
18850;BME280;4989;48.772;9.154;2023-10-09T04:05:51;98479.31;;;19.31;75.93
18850;BME280;4989;48.772;9.154;2023-10-09T04:10:56;98478.88;;;18.90;68.10
18850;BME280;4989;48.772;9.154;2023-10-09T04:16:06;98491.75;;;18.84;70.67
18850;BME280;4989;48.772;9.154;2023-10-09T04:21:26;98483.34;;;18.08;69.69
18850;BME280;4989;48.772;9.154;2023-10-09T04:26:45;98480.91;;;18.01;73.87
18850;BME280;4989;48.772;9.154;2023-10-09T04:31:47;98481.22;;;17.84;78.51
18850;BME280;4989;48.772;9.154;2023-10-09T04:36:56;98487.88;;;17.37;73.56
18850;BME280;4989;48.772;9.154;2023-10-09T04:42:02;98493.41;;;16.75;75.52
18850;BME280;4989;48.772;9.154;2023-10-09T04:47:31;98489.13;;;16.21;78.37
18850;BME280;4989;48.772;9.154;2023-10-09T04:53:03;98485.84;;;16.04;80.53
18850;BME280;4989;48.772;9.154;2023-10-09T04:58:17;98484.34;;;16.87;79.92
18850;BME280;4989;48.772;9.154;2023-10-09T05:03:26;98483.25;;;16.54;77.89
18850;BME280;4989;48.772;9.154;2023-10-09T05:08:43;98485.31;;;16.18;83.58
18850;BME280;4989;48.772;9.154;2023-10-09T05:13:48;98487.56;;;16.86;78.45
18850;BME280;4989;48.772;9.154;2023-10-09T05:19:00;98504.13;;;16.29;80.15
18850;BME280;4989;48.772;9.154;2023-10-09T05:24:05;98499.34;;;15.98;82.52
18850;BME280;4989;48.772;9.154;2023-10-09T05:29:25;98502.16;;;16.08;83.11
18850;BME280;4989;48.772;9.154;2023-10-09T05:34:34;98499.88;;;16.28;82.30
18850;BME280;4989;48.772;9.154;2023-10-09T05:39:36;98505.47;;;16.02;81.71
18850;BME280;4989;48.772;9.154;2023-10-09T05:44:44;98510.31;;;15.98;85.21
18850;BME280;4989;48.772;9.154;2023-10-09T05:55:25;98499.81;;;15.84;83.66
18850;BME280;4989;48.772;9.154;2023-10-09T06:00:46;98494.22;;;15.88;83.89
18850;BME280;4989;48.772;9.154;2023-10-09T06:06:27;98500.56;;;16.72;91.02
18850;BME280;4989;48.772;9.154;2023-10-09T06:11:35;98499.06;;;18.26;84.54
18850;BME280;4989;48.772;9.154;2023-10-09T06:16:40;98501.34;;;18.46;74.80
18850;BME280;4989;48.772;9.154;2023-10-09T06:21:44;98521.81;;;17.71;76.59
18850;BME280;4989;48.772;9.154;2023-10-09T06:26:55;98520.28;;;17.61;80.00
18850;BME280;4989;48.772;9.154;2023-10-09T06:32:07;98519.09;;;17.80;78.40
18850;BME280;4989;48.772;9.154;2023-10-09T06:37:19;98519.22;;;18.41;83.27
18850;BME280;4989;48.772;9.154;2023-10-09T06:42:28;98531.31;;;18.44;78.57
18850;BME280;4989;48.772;9.154;2023-10-09T06:47:33;98542.63;;;18.00;74.21
18850;BME280;4989;48.772;9.154;2023-10-09T06:52:44;98531.63;;;17.81;76.39
18850;BME280;4989;48.772;9.154;2023-10-09T06:58:05;98540.50;;;18.31;74.34
18850;BME280;4989;48.772;9.154;2023-10-09T07:03:12;98534.09;;;18.16;74.93
18850;BME280;4989;48.772;9.154;2023-10-09T07:08:14;98537.44;;;18.29;80.58
18850;BME280;4989;48.772;9.154;2023-10-09T07:13:34;98537.75;;;18.22;76.04
18850;BME280;4989;48.772;9.154;2023-10-09T07:18:39;98532.13;;;18.96;78.90
18850;BME280;4989;48.772;9.154;2023-10-09T07:23:51;98528.97;;;19.21;73.36
18850;BME280;4989;48.772;9.154;2023-10-09T07:28:58;98525.44;;;19.21;77.56
18850;BME280;4989;48.772;9.154;2023-10-09T07:34:18;98525.09;;;18.95;71.59
18850;BME280;4989;48.772;9.154;2023-10-09T07:39:38;98529.34;;;19.05;77.09
18850;BME280;4989;48.772;9.154;2023-10-09T07:44:46;98524.00;;;19.35;69.45
18850;BME280;4989;48.772;9.154;2023-10-09T07:49:55;98534.22;;;19.10;77.60
18850;BME280;4989;48.772;9.154;2023-10-09T07:55:01;98533.41;;;19.52;77.19
18850;BME280;4989;48.772;9.154;2023-10-09T08:00:05;98534.53;;;19.70;75.23
18850;BME280;4989;48.772;9.154;2023-10-09T08:05:14;98543.03;;;19.81;72.20
18850;BME280;4989;48.772;9.154;2023-10-09T08:10:24;98540.94;;;19.76;70.90
18850;BME280;4989;48.772;9.154;2023-10-09T08:15:26;98554.03;;;19.66;69.07
18850;BME280;4989;48.772;9.154;2023-10-09T08:20:37;98558.78;;;19.65;74.05
18850;BME280;4989;48.772;9.154;2023-10-09T08:26:02;98552.69;;;20.39;69.64
18850;BME280;4989;48.772;9.154;2023-10-09T08:31:19;98567.03;;;20.52;69.97
18850;BME280;4989;48.772;9.154;2023-10-09T08:36:22;98549.97;;;20.00;72.48
18850;BME280;4989;48.772;9.154;2023-10-09T08:41:34;98543.22;;;20.01;60.90
18850;BME280;4989;48.772;9.154;2023-10-09T08:46:36;98543.59;;;19.94;58.98
18850;BME280;4989;48.772;9.154;2023-10-09T08:51:39;98546.47;;;20.14;67.54
18850;BME280;4989;48.772;9.154;2023-10-09T08:56:46;98547.97;;;20.40;59.69
18850;BME280;4989;48.772;9.154;2023-10-09T09:01:56;98550.53;;;20.04;59.52
18850;BME280;4989;48.772;9.154;2023-10-09T09:07:02;98559.97;;;19.98;60.37
18850;BME280;4989;48.772;9.154;2023-10-09T09:12:06;98566.28;;;20.52;62.81
18850;BME280;4989;48.772;9.154;2023-10-09T09:17:08;98564.97;;;20.77;61.14
18850;BME280;4989;48.772;9.154;2023-10-09T09:22:13;98574.75;;;21.08;66.59
18850;BME280;4989;48.772;9.154;2023-10-09T09:27:16;98588.16;;;21.44;65.39
18850;BME280;4989;48.772;9.154;2023-10-09T09:32:31;98585.22;;;21.68;65.19
18850;BME280;4989;48.772;9.154;2023-10-09T09:37:40;98592.34;;;21.55;59.45
18850;BME280;4989;48.772;9.154;2023-10-09T09:42:47;98592.19;;;20.99;64.19
18850;BME280;4989;48.772;9.154;2023-10-09T09:47:52;98594.88;;;20.93;63.78
18850;BME280;4989;48.772;9.154;2023-10-09T09:52:55;98588.97;;;21.15;64.92
18850;BME280;4989;48.772;9.154;2023-10-09T09:57:58;98587.31;;;21.38;63.99
18850;BME280;4989;48.772;9.154;2023-10-09T10:03:07;98586.44;;;21.32;66.03
18850;BME280;4989;48.772;9.154;2023-10-09T10:08:10;98586.19;;;21.65;65.52
18850;BME280;4989;48.772;9.154;2023-10-09T10:13:16;98593.19;;;21.81;61.02
18850;BME280;4989;48.772;9.154;2023-10-09T10:18:24;98584.63;;;22.00;63.07
18850;BME280;4989;48.772;9.154;2023-10-09T10:23:31;98584.44;;;22.03;63.81
18850;BME280;4989;48.772;9.154;2023-10-09T10:28:39;98585.63;;;22.17;61.14
18850;BME280;4989;48.772;9.154;2023-10-09T10:39:05;98573.00;;;22.16;63.89
18850;BME280;4989;48.772;9.154;2023-10-09T10:44:12;98573.84;;;22.02;55.48
18850;BME280;4989;48.772;9.154;2023-10-09T10:49:34;98550.09;;;22.15;55.70
18850;BME280;4989;48.772;9.154;2023-10-09T10:54:40;98567.63;;;22.07;58.39
18850;BME280;4989;48.772;9.154;2023-10-09T10:59:43;98565.59;;;22.07;61.43
18850;BME280;4989;48.772;9.154;2023-10-09T11:04:48;98557.16;;;21.96;58.72
18850;BME280;4989;48.772;9.154;2023-10-09T11:10:13;98569.75;;;22.17;55.34
18850;BME280;4989;48.772;9.154;2023-10-09T11:15:37;98569.03;;;22.43;51.52
18850;BME280;4989;48.772;9.154;2023-10-09T11:20:57;98571.09;;;22.74;60.29
18850;BME280;4989;48.772;9.154;2023-10-09T11:26:07;98578.03;;;22.90;59.12
18850;BME280;4989;48.772;9.154;2023-10-09T11:31:28;98570.13;;;22.77;59.93
18850;BME280;4989;48.772;9.154;2023-10-09T11:36:34;98563.00;;;22.45;55.91
18850;BME280;4989;48.772;9.154;2023-10-09T11:41:40;98553.50;;;22.25;60.77
18850;BME280;4989;48.772;9.154;2023-10-09T11:46:59;98545.38;;;22.01;54.00
18850;BME280;4989;48.772;9.154;2023-10-09T11:52:16;98544.34;;;21.78;55.12
18850;BME280;4989;48.772;9.154;2023-10-09T11:57:38;98554.19;;;21.79;54.33
18850;BME280;4989;48.772;9.154;2023-10-09T12:02:40;98541.09;;;21.80;51.74
18850;BME280;4989;48.772;9.154;2023-10-09T12:07:47;98536.97;;;21.69;51.25
18850;BME280;4989;48.772;9.154;2023-10-09T12:12:56;98516.72;;;21.63;51.51
18850;BME280;4989;48.772;9.154;2023-10-09T12:18:01;98521.91;;;21.96;52.82
18850;BME280;4989;48.772;9.154;2023-10-09T12:23:03;98506.09;;;22.44;50.54
18850;BME280;4989;48.772;9.154;2023-10-09T12:28:09;98504.22;;;22.93;53.10
18850;BME280;4989;48.772;9.154;2023-10-09T12:33:14;98490.03;;;23.65;56.47
18850;BME280;4989;48.772;9.154;2023-10-09T12:38:17;98470.59;;;24.53;44.64
18850;BME280;4989;48.772;9.154;2023-10-09T12:43:24;98465.72;;;24.20;52.08
18850;BME280;4989;48.772;9.154;2023-10-09T12:48:29;98479.56;;;23.92;46.06
18850;BME280;4989;48.772;9.154;2023-10-09T12:53:33;98480.25;;;23.70;55.60
18850;BME280;4989;48.772;9.154;2023-10-09T12:58:35;98482.72;;;23.68;51.40
18850;BME280;4989;48.772;9.154;2023-10-09T13:03:43;98493.94;;;23.36;49.99
18850;BME280;4989;48.772;9.154;2023-10-09T13:08:45;98487.13;;;23.37;48.12
18850;BME280;4989;48.772;9.154;2023-10-09T13:13:48;98486.19;;;23.51;43.32
18850;BME280;4989;48.772;9.154;2023-10-09T13:18:57;98477.81;;;23.94;38.86
18850;BME280;4989;48.772;9.154;2023-10-09T13:24:01;98471.84;;;25.78;46.33
18850;BME280;4989;48.772;9.154;2023-10-09T13:29:04;98466.44;;;28.61;28.51
18850;BME280;4989;48.772;9.154;2023-10-09T13:34:11;98464.88;;;30.20;27.46
18850;BME280;4989;48.772;9.154;2023-10-09T13:39:18;98469.53;;;31.22;23.00
18850;BME280;4989;48.772;9.154;2023-10-09T13:44:31;98457.06;;;32.19;36.45
18850;BME280;4989;48.772;9.154;2023-10-09T13:49:34;98451.28;;;33.16;26.97
18850;BME280;4989;48.772;9.154;2023-10-09T13:54:40;98460.38;;;31.58;21.87
18850;BME280;4989;48.772;9.154;2023-10-09T13:59:43;98450.06;;;31.53;26.35
18850;BME280;4989;48.772;9.154;2023-10-09T14:04:51;98436.78;;;29.78;35.36
18850;BME280;4989;48.772;9.154;2023-10-09T14:09:54;98437.19;;;27.73;42.61
18850;BME280;4989;48.772;9.154;2023-10-09T14:14:58;98440.50;;;26.55;47.22
18850;BME280;4989;48.772;9.154;2023-10-09T14:20:03;98435.28;;;25.98;39.79
18850;BME280;4989;48.772;9.154;2023-10-09T14:25:29;98425.69;;;25.35;30.05
18850;BME280;4989;48.772;9.154;2023-10-09T14:30:32;98419.44;;;25.24;42.63
18850;BME280;4989;48.772;9.154;2023-10-09T14:35:41;98409.88;;;24.91;44.10
18850;BME280;4989;48.772;9.154;2023-10-09T14:40:45;98413.97;;;24.79;32.94
18850;BME280;4989;48.772;9.154;2023-10-09T14:45:48;98423.31;;;24.70;51.54
18850;BME280;4989;48.772;9.154;2023-10-09T14:50:52;98415.25;;;24.50;39.59
18850;BME280;4989;48.772;9.154;2023-10-09T14:56:01;98412.69;;;24.29;54.64
18850;BME280;4989;48.772;9.154;2023-10-09T15:01:10;98411.91;;;24.17;52.21
18850;BME280;4989;48.772;9.154;2023-10-09T15:06:15;98410.91;;;24.09;54.51
18850;BME280;4989;48.772;9.154;2023-10-09T15:11:22;98417.97;;;23.99;56.74
18850;BME280;4989;48.772;9.154;2023-10-09T15:16:27;98407.31;;;23.81;48.79
18850;BME280;4989;48.772;9.154;2023-10-09T15:21:33;98412.31;;;23.65;45.02
18850;BME280;4989;48.772;9.154;2023-10-09T15:26:36;98409.47;;;23.43;41.58
18850;BME280;4989;48.772;9.154;2023-10-09T15:31:40;98411.63;;;23.16;42.22
18850;BME280;4989;48.772;9.154;2023-10-09T15:36:45;98415.28;;;22.96;42.58
18850;BME280;4989;48.772;9.154;2023-10-09T15:41:50;98420.00;;;22.84;44.10
18850;BME280;4989;48.772;9.154;2023-10-09T15:46:53;98410.28;;;22.69;45.17
18850;BME280;4989;48.772;9.154;2023-10-09T15:52:02;98406.84;;;22.79;49.26
18850;BME280;4989;48.772;9.154;2023-10-09T15:57:05;98413.78;;;22.95;59.90
18850;BME280;4989;48.772;9.154;2023-10-09T16:02:15;98422.50;;;22.82;48.72
18850;BME280;4989;48.772;9.154;2023-10-09T16:07:19;98426.97;;;22.74;50.67
18850;BME280;4989;48.772;9.154;2023-10-09T16:12:22;98435.09;;;22.83;61.58
18850;BME280;4989;48.772;9.154;2023-10-09T16:17:25;98431.53;;;22.77;57.94
18850;BME280;4989;48.772;9.154;2023-10-09T16:22:28;98430.19;;;22.35;45.68
18850;BME280;4989;48.772;9.154;2023-10-09T16:27:31;98431.19;;;22.32;58.78
18850;BME280;4989;48.772;9.154;2023-10-09T16:32:33;98423.31;;;22.57;64.10
18850;BME280;4989;48.772;9.154;2023-10-09T16:37:36;98423.28;;;22.51;64.08
18850;BME280;4989;48.772;9.154;2023-10-09T16:42:40;98427.56;;;22.52;64.56
18850;BME280;4989;48.772;9.154;2023-10-09T16:47:49;98429.97;;;22.13;48.80
18850;BME280;4989;48.772;9.154;2023-10-09T16:52:54;98421.22;;;21.68;50.43
18850;BME280;4989;48.772;9.154;2023-10-09T16:57:56;98427.03;;;21.96;57.51
18850;BME280;4989;48.772;9.154;2023-10-09T17:02:59;98446.16;;;21.94;57.94
18850;BME280;4989;48.772;9.154;2023-10-09T17:08:04;98440.44;;;21.57;48.18
18850;BME280;4989;48.772;9.154;2023-10-09T17:13:12;98429.28;;;20.75;50.44
18850;BME280;4989;48.772;9.154;2023-10-09T17:18:15;98438.75;;;21.24;60.90
18850;BME280;4989;48.772;9.154;2023-10-09T17:23:17;98447.81;;;21.39;58.21
18850;BME280;4989;48.772;9.154;2023-10-09T17:28:20;98433.41;;;21.56;60.99
18850;BME280;4989;48.772;9.154;2023-10-09T17:33:23;98457.69;;;21.46;59.86
18850;BME280;4989;48.772;9.154;2023-10-09T17:38:25;98453.25;;;21.54;63.62
18850;BME280;4989;48.772;9.154;2023-10-09T17:43:28;98454.97;;;21.72;63.83
18850;BME280;4989;48.772;9.154;2023-10-09T17:48:32;98465.19;;;21.66;58.72
18850;BME280;4989;48.772;9.154;2023-10-09T17:53:36;98461.81;;;21.00;52.24
18850;BME280;4989;48.772;9.154;2023-10-09T17:58:40;98456.44;;;21.12;63.37
18850;BME280;4989;48.772;9.154;2023-10-09T18:03:52;98461.34;;;21.58;66.73
18850;BME280;4989;48.772;9.154;2023-10-09T18:08:54;98456.34;;;21.82;65.54
18850;BME280;4989;48.772;9.154;2023-10-09T18:13:57;98457.22;;;21.94;65.13
18850;BME280;4989;48.772;9.154;2023-10-09T18:19:00;98455.75;;;21.99;65.23
18850;BME280;4989;48.772;9.154;2023-10-09T18:24:07;98454.50;;;22.00;62.29
18850;BME280;4989;48.772;9.154;2023-10-09T18:29:16;98451.63;;;21.88;63.90
18850;BME280;4989;48.772;9.154;2023-10-09T18:34:19;98445.28;;;21.82;61.96
18850;BME280;4989;48.772;9.154;2023-10-09T18:39:23;98449.03;;;21.79;62.92
18850;BME280;4989;48.772;9.154;2023-10-09T18:44:25;98428.31;;;21.75;65.35
18850;BME280;4989;48.772;9.154;2023-10-09T18:49:27;98434.16;;;21.56;57.35
18850;BME280;4989;48.772;9.154;2023-10-09T18:54:30;98417.78;;;21.53;61.99
18850;BME280;4989;48.772;9.154;2023-10-09T18:59:32;98424.13;;;21.59;63.76
18850;BME280;4989;48.772;9.154;2023-10-09T19:04:34;98425.03;;;21.50;61.32
18850;BME280;4989;48.772;9.154;2023-10-09T19:09:37;98429.88;;;21.55;59.12
18850;BME280;4989;48.772;9.154;2023-10-09T19:14:39;98438.78;;;21.44;54.63
18850;BME280;4989;48.772;9.154;2023-10-09T19:19:41;98450.56;;;21.04;55.36
18850;BME280;4989;48.772;9.154;2023-10-09T19:24:43;98448.00;;;21.21;57.65
18850;BME280;4989;48.772;9.154;2023-10-09T19:29:47;98445.38;;;21.12;53.90
18850;BME280;4989;48.772;9.154;2023-10-09T19:34:50;98456.38;;;21.06;58.87
18850;BME280;4989;48.772;9.154;2023-10-09T19:39:52;98454.31;;;21.21;66.81
18850;BME280;4989;48.772;9.154;2023-10-09T19:44:54;98457.44;;;21.29;60.97
18850;BME280;4989;48.772;9.154;2023-10-09T19:49:57;98474.41;;;21.01;58.53
18850;BME280;4989;48.772;9.154;2023-10-09T19:54:59;98472.19;;;20.55;54.67
18850;BME280;4989;48.772;9.154;2023-10-09T20:00:02;98477.28;;;20.03;57.55
18850;BME280;4989;48.772;9.154;2023-10-09T20:05:09;98477.44;;;19.85;57.19
18850;BME280;4989;48.772;9.154;2023-10-09T20:10:16;98471.38;;;19.72;58.09
18850;BME280;4989;48.772;9.154;2023-10-09T20:15:20;98471.19;;;20.14;65.77
18850;BME280;4989;48.772;9.154;2023-10-09T20:20:23;98476.94;;;20.70;66.87
18850;BME280;4989;48.772;9.154;2023-10-09T20:25:25;98475.78;;;20.76;57.27
18850;BME280;4989;48.772;9.154;2023-10-09T20:30:29;98467.38;;;20.11;57.82
18850;BME280;4989;48.772;9.154;2023-10-09T20:35:32;98470.25;;;20.32;68.29
18850;BME280;4989;48.772;9.154;2023-10-09T20:40:41;98475.41;;;20.69;67.54
18850;BME280;4989;48.772;9.154;2023-10-09T20:45:45;98480.56;;;20.76;65.63
18850;BME280;4989;48.772;9.154;2023-10-09T20:50:48;98486.00;;;21.05;65.61
18850;BME280;4989;48.772;9.154;2023-10-09T20:55:51;98494.13;;;21.30;67.43
18850;BME280;4989;48.772;9.154;2023-10-09T21:00:57;98496.44;;;21.31;57.62
18850;BME280;4989;48.772;9.154;2023-10-09T21:06:03;98497.84;;;20.32;57.82
18850;BME280;4989;48.772;9.154;2023-10-09T21:11:07;98501.81;;;19.53;59.65
18850;BME280;4989;48.772;9.154;2023-10-09T21:16:12;98493.66;;;19.11;62.49
18850;BME280;4989;48.772;9.154;2023-10-09T21:21:16;98497.00;;;19.39;72.62
18850;BME280;4989;48.772;9.154;2023-10-09T21:26:22;98502.50;;;19.72;61.33
18850;BME280;4989;48.772;9.154;2023-10-09T21:31:25;98495.38;;;19.56;64.41
18850;BME280;4989;48.772;9.154;2023-10-09T21:36:27;98505.81;;;20.00;69.58
18850;BME280;4989;48.772;9.154;2023-10-09T21:41:29;98507.09;;;20.29;63.20
18850;BME280;4989;48.772;9.154;2023-10-09T21:46:31;98505.53;;;19.98;64.69
18850;BME280;4989;48.772;9.154;2023-10-09T21:51:33;98517.50;;;19.95;69.38
18850;BME280;4989;48.772;9.154;2023-10-09T21:56:36;98522.84;;;20.67;68.87
18850;BME280;4989;48.772;9.154;2023-10-09T22:01:38;98526.34;;;19.99;64.35
18850;BME280;4989;48.772;9.154;2023-10-09T22:06:42;98529.34;;;19.05;63.41
18850;BME280;4989;48.772;9.154;2023-10-09T22:11:44;98530.44;;;19.65;71.78
18850;BME280;4989;48.772;9.154;2023-10-09T22:16:47;98528.47;;;19.56;66.19
18850;BME280;4989;48.772;9.154;2023-10-09T22:21:51;98529.41;;;19.53;64.31
18850;BME280;4989;48.772;9.154;2023-10-09T22:26:58;98532.22;;;19.44;70.46
18850;BME280;4989;48.772;9.154;2023-10-09T22:32:00;98529.19;;;19.90;69.25
18850;BME280;4989;48.772;9.154;2023-10-09T22:37:03;98549.00;;;19.55;68.27
18850;BME280;4989;48.772;9.154;2023-10-09T22:42:05;98540.03;;;19.70;67.55
18850;BME280;4989;48.772;9.154;2023-10-09T22:47:10;98543.41;;;19.07;64.56
18850;BME280;4989;48.772;9.154;2023-10-09T22:52:16;98540.31;;;18.53;69.71
18850;BME280;4989;48.772;9.154;2023-10-09T22:57:25;98540.91;;;18.58;68.00
18850;BME280;4989;48.772;9.154;2023-10-09T23:02:28;98546.91;;;18.38;68.96
18850;BME280;4989;48.772;9.154;2023-10-09T23:07:52;98549.97;;;18.12;69.18
18850;BME280;4989;48.772;9.154;2023-10-09T23:13:01;98542.28;;;18.71;73.65
18850;BME280;4989;48.772;9.154;2023-10-09T23:18:16;98540.25;;;18.90;70.15
18850;BME280;4989;48.772;9.154;2023-10-09T23:23:36;98542.03;;;18.33;68.26
18850;BME280;4989;48.772;9.154;2023-10-09T23:28:43;98536.53;;;18.14;69.40
18850;BME280;4989;48.772;9.154;2023-10-09T23:33:53;98539.22;;;17.68;71.98
18850;BME280;4989;48.772;9.154;2023-10-09T23:38:59;98536.53;;;18.14;74.27
18850;BME280;4989;48.772;9.154;2023-10-09T23:44:12;98536.16;;;17.75;71.45
18850;BME280;4989;48.772;9.154;2023-10-09T23:49:22;98529.31;;;17.21;74.10
18850;BME280;4989;48.772;9.154;2023-10-09T23:54:26;98541.22;;;17.18;74.86
18850;BME280;4989;48.772;9.154;2023-10-09T23:59:30;98543.88;;;17.00;75.70
